sensor_id;sensor_type;location;lat;lon;timestamp;pressure;altitude;pressure_sealevel;temperature;humidity
10606;BME280;5350;42.698;23.148;2022-07-24T00:01:33;93768.03;;;22.22;59.06
10606;BME280;5350;42.698;23.148;2022-07-24T00:03:59;93767.19;;;22.18;55.29
10606;BME280;5350;42.698;23.148;2022-07-24T00:06:27;93766.31;;;22.11;55.89
10606;BME280;5350;42.698;23.148;2022-07-24T00:08:54;93767.38;;;22.06;61.45
10606;BME280;5350;42.698;23.148;2022-07-24T00:11:20;93775.00;;;22.04;55.63
10606;BME280;5350;42.698;23.148;2022-07-24T00:13:47;93767.28;;;22.03;60.30
10606;BME280;5350;42.698;23.148;2022-07-24T00:16:13;93768.03;;;22.00;60.70
10606;BME280;5350;42.698;23.148;2022-07-24T00:18:40;93758.91;;;22.04;55.12
10606;BME280;5350;42.698;23.148;2022-07-24T00:21:07;93763.34;;;21.97;62.79
10606;BME280;5350;42.698;23.148;2022-07-24T00:23:35;93753.47;;;22.01;62.27
10606;BME280;5350;42.698;23.148;2022-07-24T00:26:01;93753.78;;;21.96;55.02
10606;BME280;5350;42.698;23.148;2022-07-24T00:28:28;93752.66;;;21.97;57.57
10606;BME280;5350;42.698;23.148;2022-07-24T00:30:55;93757.16;;;21.93;53.79
10606;BME280;5350;42.698;23.148;2022-07-24T00:33:21;93759.38;;;21.87;54.27
10606;BME280;5350;42.698;23.148;2022-07-24T00:35:48;93766.75;;;21.94;62.88
10606;BME280;5350;42.698;23.148;2022-07-24T00:38:14;93763.72;;;21.95;63.23
10606;BME280;5350;42.698;23.148;2022-07-24T00:40:42;93768.28;;;21.95;60.73
10606;BME280;5350;42.698;23.148;2022-07-24T00:43:08;93776.91;;;21.85;58.96
10606;BME280;5350;42.698;23.148;2022-07-24T00:45:35;93784.25;;;21.88;61.28
10606;BME280;5350;42.698;23.148;2022-07-24T00:48:02;93786.56;;;21.89;64.29
10606;BME280;5350;42.698;23.148;2022-07-24T00:50:28;93775.84;;;21.89;62.16
10606;BME280;5350;42.698;23.148;2022-07-24T00:52:55;93778.72;;;21.81;57.33
10606;BME280;5350;42.698;23.148;2022-07-24T00:55:22;93781.56;;;21.69;61.63
10606;BME280;5350;42.698;23.148;2022-07-24T00:57:50;93778.75;;;21.62;56.52
10606;BME280;5350;42.698;23.148;2022-07-24T01:00:17;93782.16;;;21.59;57.67
10606;BME280;5350;42.698;23.148;2022-07-24T01:02:44;93779.47;;;21.59;57.92
10606;BME280;5350;42.698;23.148;2022-07-24T01:05:11;93784.25;;;21.49;61.44
10606;BME280;5350;42.698;23.148;2022-07-24T01:07:38;93772.56;;;21.58;56.11
10606;BME280;5350;42.698;23.148;2022-07-24T01:10:05;93774.25;;;21.46;56.20
10606;BME280;5350;42.698;23.148;2022-07-24T01:12:32;93771.28;;;21.32;64.55
10606;BME280;5350;42.698;23.148;2022-07-24T01:15:01;93766.50;;;21.41;56.58
10606;BME280;5350;42.698;23.148;2022-07-24T01:17:29;93769.13;;;21.38;56.87
10606;BME280;5350;42.698;23.148;2022-07-24T01:19:55;93754.75;;;21.27;57.37
10606;BME280;5350;42.698;23.148;2022-07-24T01:22:23;93753.19;;;21.26;56.63
10606;BME280;5350;42.698;23.148;2022-07-24T01:24:50;93752.84;;;21.27;57.47
10606;BME280;5350;42.698;23.148;2022-07-24T01:27:17;93751.59;;;21.21;63.35
10606;BME280;5350;42.698;23.148;2022-07-24T01:29:43;93754.97;;;21.18;67.23
10606;BME280;5350;42.698;23.148;2022-07-24T01:32:10;93752.03;;;21.23;69.65
10606;BME280;5350;42.698;23.148;2022-07-24T01:34:36;93758.63;;;21.29;66.89
10606;BME280;5350;42.698;23.148;2022-07-24T01:37:03;93750.16;;;21.08;61.33
10606;BME280;5350;42.698;23.148;2022-07-24T01:39:31;93747.50;;;20.93;62.52
10606;BME280;5350;42.698;23.148;2022-07-24T01:41:57;93745.88;;;20.88;64.58
10606;BME280;5350;42.698;23.148;2022-07-24T01:44:24;93749.94;;;20.82;69.68
10606;BME280;5350;42.698;23.148;2022-07-24T01:46:50;93742.09;;;20.89;68.30
10606;BME280;5350;42.698;23.148;2022-07-24T01:49:17;93739.53;;;20.77;66.12
10606;BME280;5350;42.698;23.148;2022-07-24T01:51:43;93742.91;;;20.74;68.20
10606;BME280;5350;42.698;23.148;2022-07-24T01:54:10;93738.69;;;20.73;72.98
10606;BME280;5350;42.698;23.148;2022-07-24T01:56:38;93735.03;;;20.81;76.66
10606;BME280;5350;42.698;23.148;2022-07-24T01:59:04;93739.84;;;20.91;79.21
10606;BME280;5350;42.698;23.148;2022-07-24T02:01:31;93737.75;;;21.00;80.29
10606;BME280;5350;42.698;23.148;2022-07-24T02:03:57;93741.78;;;21.10;82.50
10606;BME280;5350;42.698;23.148;2022-07-24T02:06:24;93747.63;;;21.15;83.09
10606;BME280;5350;42.698;23.148;2022-07-24T02:08:50;93739.69;;;21.19;68.82
10606;BME280;5350;42.698;23.148;2022-07-24T02:11:17;93746.16;;;20.83;71.12
10606;BME280;5350;42.698;23.148;2022-07-24T02:13:45;93741.56;;;20.64;74.87
10606;BME280;5350;42.698;23.148;2022-07-24T02:16:12;93738.09;;;20.64;81.84
10606;BME280;5350;42.698;23.148;2022-07-24T02:18:38;93739.31;;;20.66;81.83
10606;BME280;5350;42.698;23.148;2022-07-24T02:21:05;93748.59;;;20.73;82.85
10606;BME280;5350;42.698;23.148;2022-07-24T02:23:31;93746.34;;;20.75;81.28
10606;BME280;5350;42.698;23.148;2022-07-24T02:25:58;93746.16;;;20.83;85.87
10606;BME280;5350;42.698;23.148;2022-07-24T02:28:24;93746.59;;;20.85;84.81
10606;BME280;5350;42.698;23.148;2022-07-24T02:30:52;93743.91;;;20.85;84.66
10606;BME280;5350;42.698;23.148;2022-07-24T02:33:19;93742.88;;;20.90;85.18
10606;BME280;5350;42.698;23.148;2022-07-24T02:35:46;93748.78;;;20.80;74.68
10606;BME280;5350;42.698;23.148;2022-07-24T02:38:12;93743.88;;;20.66;75.42
10606;BME280;5350;42.698;23.148;2022-07-24T02:40:39;93746.25;;;20.52;77.88
10606;BME280;5350;42.698;23.148;2022-07-24T02:43:05;93737.91;;;20.38;81.99
10606;BME280;5350;42.698;23.148;2022-07-24T02:45:32;93744.69;;;20.35;89.79
10606;BME280;5350;42.698;23.148;2022-07-24T02:48:00;93750.56;;;20.41;89.40
10606;BME280;5350;42.698;23.148;2022-07-24T02:50:29;93746.78;;;20.42;90.66
10606;BME280;5350;42.698;23.148;2022-07-24T02:52:56;93742.00;;;19.88;83.92
10606;BME280;5350;42.698;23.148;2022-07-24T02:55:22;93734.25;;;19.99;79.35
10606;BME280;5350;42.698;23.148;2022-07-24T02:57:49;93738.66;;;19.91;88.87
10606;BME280;5350;42.698;23.148;2022-07-24T03:00:16;93745.09;;;19.90;94.66
10606;BME280;5350;42.698;23.148;2022-07-24T03:02:43;93742.78;;;19.89;95.19
10606;BME280;5350;42.698;23.148;2022-07-24T03:05:11;93739.94;;;19.98;80.26
10606;BME280;5350;42.698;23.148;2022-07-24T03:07:38;93755.78;;;19.90;94.34
10606;BME280;5350;42.698;23.148;2022-07-24T03:10:06;93761.81;;;19.87;95.62
10606;BME280;5350;42.698;23.148;2022-07-24T03:12:33;93752.06;;;19.95;87.85
10606;BME280;5350;42.698;23.148;2022-07-24T03:15:00;93743.44;;;19.70;84.24
10606;BME280;5350;42.698;23.148;2022-07-24T03:17:26;93736.53;;;19.54;86.00
10606;BME280;5350;42.698;23.148;2022-07-24T03:19:53;93738.28;;;19.34;85.01
10606;BME280;5350;42.698;23.148;2022-07-24T03:22:21;93742.53;;;19.23;83.17
10606;BME280;5350;42.698;23.148;2022-07-24T03:24:47;93740.03;;;19.30;96.75
10606;BME280;5350;42.698;23.148;2022-07-24T03:27:14;93735.16;;;19.32;97.81
10606;BME280;5350;42.698;23.148;2022-07-24T03:29:41;93753.13;;;19.47;100.00
10606;BME280;5350;42.698;23.148;2022-07-24T03:32:07;93747.19;;;19.54;100.00
10606;BME280;5350;42.698;23.148;2022-07-24T03:34:34;93744.13;;;19.67;87.17
10606;BME280;5350;42.698;23.148;2022-07-24T03:37:00;93736.66;;;19.73;86.40
10606;BME280;5350;42.698;23.148;2022-07-24T03:39:28;93739.28;;;19.57;93.69
10606;BME280;5350;42.698;23.148;2022-07-24T03:41:54;93735.84;;;19.29;92.90
10606;BME280;5350;42.698;23.148;2022-07-24T03:44:21;93743.13;;;19.44;92.57
10606;BME280;5350;42.698;23.148;2022-07-24T03:46:47;93744.88;;;19.52;99.41
10606;BME280;5350;42.698;23.148;2022-07-24T03:49:14;93741.13;;;19.69;99.44
10606;BME280;5350;42.698;23.148;2022-07-24T03:51:40;93751.88;;;19.72;88.85
10606;BME280;5350;42.698;23.148;2022-07-24T03:54:07;93751.72;;;19.81;90.69
10606;BME280;5350;42.698;23.148;2022-07-24T03:56:35;93748.97;;;19.93;100.00
10606;BME280;5350;42.698;23.148;2022-07-24T03:59:01;93761.50;;;20.05;96.97
10606;BME280;5350;42.698;23.148;2022-07-24T04:01:28;93756.72;;;20.14;89.21
10606;BME280;5350;42.698;23.148;2022-07-24T04:03:54;93763.63;;;20.15;92.81
10606;BME280;5350;42.698;23.148;2022-07-24T04:06:23;93763.16;;;20.25;92.66
10606;BME280;5350;42.698;23.148;2022-07-24T04:08:49;93749.25;;;20.35;86.75
10606;BME280;5350;42.698;23.148;2022-07-24T04:11:16;93747.81;;;20.37;77.74
10606;BME280;5350;42.698;23.148;2022-07-24T04:13:44;93745.44;;;20.51;79.03
10606;BME280;5350;42.698;23.148;2022-07-24T04:16:10;93751.09;;;20.65;73.97
10606;BME280;5350;42.698;23.148;2022-07-24T04:18:37;93754.72;;;20.73;81.28
10606;BME280;5350;42.698;23.148;2022-07-24T04:21:03;93767.97;;;20.85;92.30
10606;BME280;5350;42.698;23.148;2022-07-24T04:23:30;93762.09;;;20.95;93.74
10606;BME280;5350;42.698;23.148;2022-07-24T04:25:56;93763.97;;;21.10;96.85
10606;BME280;5350;42.698;23.148;2022-07-24T04:28:23;93768.13;;;21.27;96.59
10606;BME280;5350;42.698;23.148;2022-07-24T04:30:51;93765.38;;;21.42;94.33
10606;BME280;5350;42.698;23.148;2022-07-24T04:33:17;93769.47;;;21.56;92.59
10606;BME280;5350;42.698;23.148;2022-07-24T04:35:44;93767.03;;;21.70;89.39
10606;BME280;5350;42.698;23.148;2022-07-24T04:38:10;93759.31;;;21.84;83.38
10606;BME280;5350;42.698;23.148;2022-07-24T04:40:37;93755.31;;;21.97;78.05
10606;BME280;5350;42.698;23.148;2022-07-24T04:43:03;93759.69;;;22.05;83.32
10606;BME280;5350;42.698;23.148;2022-07-24T04:45:30;93757.19;;;22.15;81.12
10606;BME280;5350;42.698;23.148;2022-07-24T04:47:58;93756.22;;;22.27;78.79
10606;BME280;5350;42.698;23.148;2022-07-24T04:50:24;93753.41;;;22.43;79.16
10606;BME280;5350;42.698;23.148;2022-07-24T04:52:51;93756.66;;;22.55;74.83
10606;BME280;5350;42.698;23.148;2022-07-24T04:55:17;93762.72;;;22.71;75.36
10606;BME280;5350;42.698;23.148;2022-07-24T04:57:44;93726.22;;;22.63;82.00
10606;BME280;5350;42.698;23.148;2022-07-24T05:00:11;93761.03;;;22.89;81.52
10606;BME280;5350;42.698;23.148;2022-07-24T05:02:38;93764.25;;;22.98;81.11
10606;BME280;5350;42.698;23.148;2022-07-24T05:05:06;93767.41;;;23.08;79.90
10606;BME280;5350;42.698;23.148;2022-07-24T05:07:33;93765.13;;;23.10;72.69
10606;BME280;5350;42.698;23.148;2022-07-24T05:10:00;93773.06;;;23.29;77.01
10606;BME280;5350;42.698;23.148;2022-07-24T05:12:26;93783.97;;;23.39;76.85
10606;BME280;5350;42.698;23.148;2022-07-24T05:14:53;93791.97;;;23.36;80.81
10606;BME280;5350;42.698;23.148;2022-07-24T05:17:19;93783.81;;;23.29;77.42
10606;BME280;5350;42.698;23.148;2022-07-24T05:19:46;93772.66;;;23.27;75.59
10606;BME280;5350;42.698;23.148;2022-07-24T05:22:14;93780.00;;;23.30;75.13
10606;BME280;5350;42.698;23.148;2022-07-24T05:24:40;93778.56;;;23.36;72.88
10606;BME280;5350;42.698;23.148;2022-07-24T05:27:07;93775.13;;;23.39;73.56
10606;BME280;5350;42.698;23.148;2022-07-24T05:29:33;93775.22;;;23.46;69.66
10606;BME280;5350;42.698;23.148;2022-07-24T05:32:00;93776.88;;;23.57;71.03
10606;BME280;5350;42.698;23.148;2022-07-24T05:34:26;93778.97;;;23.71;69.33
10606;BME280;5350;42.698;23.148;2022-07-24T05:36:54;93768.31;;;23.78;68.16
10606;BME280;5350;42.698;23.148;2022-07-24T05:39:22;93760.72;;;23.87;66.41
10606;BME280;5350;42.698;23.148;2022-07-24T05:41:49;93766.63;;;24.03;62.51
10606;BME280;5350;42.698;23.148;2022-07-24T05:44:15;93768.03;;;24.23;61.74
10606;BME280;5350;42.698;23.148;2022-07-24T05:46:42;93767.75;;;24.35;61.08
10606;BME280;5350;42.698;23.148;2022-07-24T05:49:08;93768.25;;;24.48;61.91
10606;BME280;5350;42.698;23.148;2022-07-24T05:51:35;93769.84;;;24.59;62.64
10606;BME280;5350;42.698;23.148;2022-07-24T05:54:01;93772.28;;;24.72;62.73
10606;BME280;5350;42.698;23.148;2022-07-24T05:56:29;93775.47;;;24.88;62.58
10606;BME280;5350;42.698;23.148;2022-07-24T05:58:56;93769.44;;;25.08;62.09
10606;BME280;5350;42.698;23.148;2022-07-24T06:01:23;93778.69;;;25.11;59.09
10606;BME280;5350;42.698;23.148;2022-07-24T06:03:49;93769.06;;;25.10;60.11
10606;BME280;5350;42.698;23.148;2022-07-24T06:06:16;93772.16;;;25.12;55.93
10606;BME280;5350;42.698;23.148;2022-07-24T06:08:42;93779.88;;;25.13;57.86
10606;BME280;5350;42.698;23.148;2022-07-24T06:11:10;93755.56;;;24.99;58.64
10606;BME280;5350;42.698;23.148;2022-07-24T06:13:38;93784.22;;;25.32;59.21
10606;BME280;5350;42.698;23.148;2022-07-24T06:16:05;93785.78;;;25.40;61.25
10606;BME280;5350;42.698;23.148;2022-07-24T06:18:31;93787.38;;;25.48;60.13
10606;BME280;5350;42.698;23.148;2022-07-24T06:20:58;93787.44;;;25.55;62.41
10606;BME280;5350;42.698;23.148;2022-07-24T06:23:24;93775.88;;;25.58;56.94
10606;BME280;5350;42.698;23.148;2022-07-24T06:25:50;93735.84;;;25.50;56.38
10606;BME280;5350;42.698;23.148;2022-07-24T06:28:17;93775.22;;;25.86;52.51
10606;BME280;5350;42.698;23.148;2022-07-24T06:30:46;93773.31;;;26.00;55.16
10606;BME280;5350;42.698;23.148;2022-07-24T06:33:13;93768.31;;;26.06;52.31
10606;BME280;5350;42.698;23.148;2022-07-24T06:35:39;93763.75;;;26.21;55.53
10606;BME280;5350;42.698;23.148;2022-07-24T06:38:06;93759.19;;;26.39;54.99
10606;BME280;5350;42.698;23.148;2022-07-24T06:40:32;93756.47;;;26.53;53.46
10606;BME280;5350;42.698;23.148;2022-07-24T06:42:59;93749.91;;;26.64;50.36
10606;BME280;5350;42.698;23.148;2022-07-24T06:45:26;93750.72;;;26.82;53.92
10606;BME280;5350;42.698;23.148;2022-07-24T06:47:54;93736.78;;;26.98;51.79
10606;BME280;5350;42.698;23.148;2022-07-24T06:50:20;93735.19;;;27.25;52.25
10606;BME280;5350;42.698;23.148;2022-07-24T06:52:47;93736.34;;;27.38;53.86
10606;BME280;5350;42.698;23.148;2022-07-24T06:55:13;93734.28;;;27.60;49.89
10606;BME280;5350;42.698;23.148;2022-07-24T06:57:40;93735.44;;;27.69;48.45
10606;BME280;5350;42.698;23.148;2022-07-24T07:00:07;93730.69;;;27.88;50.00
10606;BME280;5350;42.698;23.148;2022-07-24T07:02:34;93735.66;;;28.00;48.59
10606;BME280;5350;42.698;23.148;2022-07-24T07:05:02;93735.59;;;28.14;48.62
10606;BME280;5350;42.698;23.148;2022-07-24T07:07:29;93700.16;;;28.01;49.71
10606;BME280;5350;42.698;23.148;2022-07-24T07:09:56;93733.91;;;28.34;49.56
10606;BME280;5350;42.698;23.148;2022-07-24T07:12:22;93734.16;;;28.50;48.69
10606;BME280;5350;42.698;23.148;2022-07-24T07:14:49;93736.81;;;28.61;48.31
10606;BME280;5350;42.698;23.148;2022-07-24T07:17:15;93726.72;;;28.68;47.33
10606;BME280;5350;42.698;23.148;2022-07-24T07:19:43;93737.41;;;28.82;47.88
10606;BME280;5350;42.698;23.148;2022-07-24T07:22:11;93737.25;;;28.96;48.50
10606;BME280;5350;42.698;23.148;2022-07-24T07:24:38;93737.38;;;28.86;48.58
10606;BME280;5350;42.698;23.148;2022-07-24T07:27:04;93743.56;;;28.86;49.38
10606;BME280;5350;42.698;23.148;2022-07-24T07:29:31;93742.75;;;28.89;48.61
10606;BME280;5350;42.698;23.148;2022-07-24T07:31:57;93741.25;;;28.85;48.01
10606;BME280;5350;42.698;23.148;2022-07-24T07:34:24;93740.44;;;28.91;47.87
10606;BME280;5350;42.698;23.148;2022-07-24T07:36:51;93746.56;;;28.95;50.25
10606;BME280;5350;42.698;23.148;2022-07-24T07:39:19;93748.06;;;29.00;49.02
10606;BME280;5350;42.698;23.148;2022-07-24T07:41:46;93743.78;;;29.02;48.56
10606;BME280;5350;42.698;23.148;2022-07-24T07:44:12;93745.63;;;29.16;47.64
10606;BME280;5350;42.698;23.148;2022-07-24T07:46:39;93738.53;;;29.26;47.08
10606;BME280;5350;42.698;23.148;2022-07-24T07:49:05;93736.03;;;29.42;45.52
10606;BME280;5350;42.698;23.148;2022-07-24T07:51:32;93736.75;;;29.49;46.36
10606;BME280;5350;42.698;23.148;2022-07-24T07:53:58;93738.84;;;29.65;44.73
10606;BME280;5350;42.698;23.148;2022-07-24T07:56:26;93748.75;;;29.82;43.94
10606;BME280;5350;42.698;23.148;2022-07-24T07:58:55;93740.16;;;29.87;42.36
10606;BME280;5350;42.698;23.148;2022-07-24T08:01:22;93744.69;;;29.97;42.00
10606;BME280;5350;42.698;23.148;2022-07-24T08:03:49;93744.38;;;30.18;43.83
10606;BME280;5350;42.698;23.148;2022-07-24T08:06:15;93744.56;;;30.34;44.22
10606;BME280;5350;42.698;23.148;2022-07-24T08:08:42;93747.72;;;30.56;43.30
10606;BME280;5350;42.698;23.148;2022-07-24T08:11:08;93742.84;;;30.70;42.90
10606;BME280;5350;42.698;23.148;2022-07-24T08:13:36;93740.25;;;30.87;44.63
10606;BME280;5350;42.698;23.148;2022-07-24T08:16:03;93742.63;;;31.08;42.90
10606;BME280;5350;42.698;23.148;2022-07-24T08:18:29;93741.03;;;31.30;42.03
10606;BME280;5350;42.698;23.148;2022-07-24T08:20:56;93736.78;;;31.52;39.08
10606;BME280;5350;42.698;23.148;2022-07-24T08:23:22;93739.97;;;31.67;41.57
10606;BME280;5350;42.698;23.148;2022-07-24T08:25:49;93743.09;;;31.85;39.61
10606;BME280;5350;42.698;23.148;2022-07-24T08:28:15;93744.28;;;32.03;38.70
10606;BME280;5350;42.698;23.148;2022-07-24T08:30:44;93738.69;;;32.10;38.27
10606;BME280;5350;42.698;23.148;2022-07-24T08:33:10;93738.53;;;32.33;39.75
10606;BME280;5350;42.698;23.148;2022-07-24T08:35:37;93741.31;;;32.50;37.15
10606;BME280;5350;42.698;23.148;2022-07-24T08:38:03;93745.41;;;32.58;36.33
10606;BME280;5350;42.698;23.148;2022-07-24T08:40:32;93736.88;;;32.72;38.51
10606;BME280;5350;42.698;23.148;2022-07-24T08:42:59;93743.78;;;32.76;38.07
10606;BME280;5350;42.698;23.148;2022-07-24T08:45:26;93742.91;;;32.95;37.32
10606;BME280;5350;42.698;23.148;2022-07-24T08:47:54;93741.69;;;33.00;38.42
10606;BME280;5350;42.698;23.148;2022-07-24T08:50:21;93746.09;;;33.10;39.04
10606;BME280;5350;42.698;23.148;2022-07-24T08:52:48;93743.94;;;33.18;36.35
10606;BME280;5350;42.698;23.148;2022-07-24T08:55:14;93740.09;;;33.31;37.00
10606;BME280;5350;42.698;23.148;2022-07-24T08:57:42;93741.59;;;33.32;36.40
10606;BME280;5350;42.698;23.148;2022-07-24T09:00:08;93741.94;;;33.34;37.46
10606;BME280;5350;42.698;23.148;2022-07-24T09:02:36;93736.47;;;33.34;36.38
10606;BME280;5350;42.698;23.148;2022-07-24T09:05:04;93745.38;;;33.22;37.11
10606;BME280;5350;42.698;23.148;2022-07-24T09:07:31;93744.88;;;33.11;36.28
10606;BME280;5350;42.698;23.148;2022-07-24T09:09:58;93739.00;;;32.96;36.06
10606;BME280;5350;42.698;23.148;2022-07-24T09:12:25;93748.31;;;32.99;36.78
10606;BME280;5350;42.698;23.148;2022-07-24T09:14:56;93737.25;;;33.06;37.43
10606;BME280;5350;42.698;23.148;2022-07-24T09:17:22;93739.41;;;33.11;36.42
10606;BME280;5350;42.698;23.148;2022-07-24T09:19:49;93738.41;;;33.21;36.32
10606;BME280;5350;42.698;23.148;2022-07-24T09:22:19;93743.66;;;33.28;37.12
10606;BME280;5350;42.698;23.148;2022-07-24T09:24:50;93746.41;;;33.12;37.01
10606;BME280;5350;42.698;23.148;2022-07-24T09:27:29;93746.72;;;33.30;36.25
10606;BME280;5350;42.698;23.148;2022-07-24T09:29:55;93738.06;;;33.48;35.88
10606;BME280;5350;42.698;23.148;2022-07-24T09:32:22;93734.88;;;33.65;34.89
10606;BME280;5350;42.698;23.148;2022-07-24T09:34:50;93732.19;;;33.78;33.76
10606;BME280;5350;42.698;23.148;2022-07-24T09:37:18;93731.56;;;33.99;34.45
10606;BME280;5350;42.698;23.148;2022-07-24T09:39:45;93737.25;;;33.63;32.43
10606;BME280;5350;42.698;23.148;2022-07-24T09:42:12;93731.31;;;33.81;32.84
10606;BME280;5350;42.698;23.148;2022-07-24T09:44:39;93727.72;;;33.97;33.81
10606;BME280;5350;42.698;23.148;2022-07-24T09:47:07;93727.91;;;34.18;33.03
10606;BME280;5350;42.698;23.148;2022-07-24T09:49:34;93722.44;;;34.31;35.49
10606;BME280;5350;42.698;23.148;2022-07-24T09:52:09;93731.53;;;34.53;33.47
10606;BME280;5350;42.698;23.148;2022-07-24T09:54:38;93723.22;;;34.69;32.38
10606;BME280;5350;42.698;23.148;2022-07-24T09:57:15;93725.94;;;34.82;32.64
10606;BME280;5350;42.698;23.148;2022-07-24T09:59:43;93715.06;;;35.03;32.85
10606;BME280;5350;42.698;23.148;2022-07-24T10:02:11;93719.19;;;35.20;31.38
10606;BME280;5350;42.698;23.148;2022-07-24T10:04:38;93709.69;;;35.12;31.25
10606;BME280;5350;42.698;23.148;2022-07-24T10:07:07;93715.34;;;35.18;30.53
10606;BME280;5350;42.698;23.148;2022-07-24T10:09:35;93705.28;;;35.27;31.33
10606;BME280;5350;42.698;23.148;2022-07-24T10:12:04;93718.94;;;35.27;31.59
10606;BME280;5350;42.698;23.148;2022-07-24T10:14:31;93720.78;;;35.30;30.07
10606;BME280;5350;42.698;23.148;2022-07-24T10:17:01;93715.16;;;35.47;30.56
10606;BME280;5350;42.698;23.148;2022-07-24T10:19:31;93715.00;;;35.63;31.23
10606;BME280;5350;42.698;23.148;2022-07-24T10:22:05;93713.16;;;35.90;30.19
10606;BME280;5350;42.698;23.148;2022-07-24T10:24:41;93710.69;;;36.05;31.02
10606;BME280;5350;42.698;23.148;2022-07-24T10:27:15;93705.31;;;36.23;29.59
10606;BME280;5350;42.698;23.148;2022-07-24T10:29:44;93703.50;;;36.29;29.99
10606;BME280;5350;42.698;23.148;2022-07-24T10:32:11;93705.16;;;36.57;29.22
10606;BME280;5350;42.698;23.148;2022-07-24T10:34:42;93707.19;;;36.75;29.64
10606;BME280;5350;42.698;23.148;2022-07-24T10:37:11;93696.81;;;36.70;27.15
10606;BME280;5350;42.698;23.148;2022-07-24T10:39:43;93697.00;;;36.84;26.49
10606;BME280;5350;42.698;23.148;2022-07-24T10:42:14;93696.91;;;37.06;25.40
10606;BME280;5350;42.698;23.148;2022-07-24T10:44:41;93693.41;;;37.33;28.18
10606;BME280;5350;42.698;23.148;2022-07-24T10:47:10;93689.03;;;37.35;27.34
10606;BME280;5350;42.698;23.148;2022-07-24T10:49:43;93692.69;;;37.41;25.62
10606;BME280;5350;42.698;23.148;2022-07-24T10:52:11;93684.63;;;37.38;25.19
10606;BME280;5350;42.698;23.148;2022-07-24T10:54:37;93684.44;;;37.41;27.35
10606;BME280;5350;42.698;23.148;2022-07-24T10:57:04;93676.66;;;37.67;26.57
10606;BME280;5350;42.698;23.148;2022-07-24T10:59:33;93680.44;;;37.97;26.74
10606;BME280;5350;42.698;23.148;2022-07-24T11:04:41;93665.09;;;38.14;25.27
10606;BME280;5350;42.698;23.148;2022-07-24T11:07:08;93678.09;;;38.13;26.00
10606;BME280;5350;42.698;23.148;2022-07-24T11:09:55;93669.03;;;38.31;26.41
10606;BME280;5350;42.698;23.148;2022-07-24T11:12:28;93673.03;;;38.54;24.28
10606;BME280;5350;42.698;23.148;2022-07-24T11:14:58;93662.94;;;38.60;23.09
10606;BME280;5350;42.698;23.148;2022-07-24T11:17:47;93666.25;;;38.64;25.05
10606;BME280;5350;42.698;23.148;2022-07-24T11:20:14;93666.06;;;38.44;22.18
10606;BME280;5350;42.698;23.148;2022-07-24T11:22:41;93656.91;;;38.05;22.52
10606;BME280;5350;42.698;23.148;2022-07-24T11:25:09;93664.84;;;38.03;23.56
10606;BME280;5350;42.698;23.148;2022-07-24T11:27:47;93664.75;;;37.88;24.38
10606;BME280;5350;42.698;23.148;2022-07-24T11:30:15;93665.97;;;37.69;24.07
10606;BME280;5350;42.698;23.148;2022-07-24T11:32:42;93661.84;;;37.74;25.45
10606;BME280;5350;42.698;23.148;2022-07-24T11:35:09;93654.41;;;37.65;26.44
10606;BME280;5350;42.698;23.148;2022-07-24T11:37:36;93654.72;;;37.31;25.71
10606;BME280;5350;42.698;23.148;2022-07-24T11:40:03;93657.59;;;37.18;25.34
10606;BME280;5350;42.698;23.148;2022-07-24T11:42:30;93651.81;;;37.07;25.59
10606;BME280;5350;42.698;23.148;2022-07-24T11:44:57;93649.09;;;37.16;26.96
10606;BME280;5350;42.698;23.148;2022-07-24T11:47:25;93650.59;;;37.26;25.02
10606;BME280;5350;42.698;23.148;2022-07-24T11:49:53;93646.66;;;37.45;25.06
10606;BME280;5350;42.698;23.148;2022-07-24T11:52:20;93649.81;;;37.71;24.09
10606;BME280;5350;42.698;23.148;2022-07-24T11:54:47;93645.16;;;38.04;22.63
10606;BME280;5350;42.698;23.148;2022-07-24T11:57:15;93638.59;;;38.44;22.43
10606;BME280;5350;42.698;23.148;2022-07-24T11:59:42;93636.41;;;38.57;22.55
10606;BME280;5350;42.698;23.148;2022-07-24T12:02:09;93636.09;;;38.22;22.58
10606;BME280;5350;42.698;23.148;2022-07-24T12:04:38;93630.81;;;38.09;23.05
10606;BME280;5350;42.698;23.148;2022-07-24T12:07:05;93635.72;;;38.38;22.58
10606;BME280;5350;42.698;23.148;2022-07-24T12:09:31;93625.25;;;38.84;25.99
10606;BME280;5350;42.698;23.148;2022-07-24T12:11:58;93627.91;;;39.17;22.79
10606;BME280;5350;42.698;23.148;2022-07-24T12:14:24;93604.81;;;39.38;23.08
10606;BME280;5350;42.698;23.148;2022-07-24T12:16:51;93619.72;;;39.89;22.78
10606;BME280;5350;42.698;23.148;2022-07-24T12:19:18;93617.94;;;40.16;21.52
10606;BME280;5350;42.698;23.148;2022-07-24T12:21:47;93614.72;;;40.52;23.78
10606;BME280;5350;42.698;23.148;2022-07-24T12:24:14;93616.03;;;40.77;25.04
10606;BME280;5350;42.698;23.148;2022-07-24T12:26:53;93615.53;;;40.93;21.23
10606;BME280;5350;42.698;23.148;2022-07-24T12:29:20;93616.97;;;41.28;21.46
10606;BME280;5350;42.698;23.148;2022-07-24T12:31:46;93612.63;;;41.48;21.12
10606;BME280;5350;42.698;23.148;2022-07-24T12:34:13;93610.25;;;41.61;21.18
10606;BME280;5350;42.698;23.148;2022-07-24T12:36:40;93599.44;;;41.83;19.32
10606;BME280;5350;42.698;23.148;2022-07-24T12:39:08;93591.72;;;42.18;19.13
10606;BME280;5350;42.698;23.148;2022-07-24T12:41:41;93592.69;;;42.52;18.02
10606;BME280;5350;42.698;23.148;2022-07-24T12:44:08;93590.03;;;42.68;19.02
10606;BME280;5350;42.698;23.148;2022-07-24T12:46:35;93582.97;;;42.67;19.48
10606;BME280;5350;42.698;23.148;2022-07-24T12:49:03;93573.47;;;42.79;19.95
10606;BME280;5350;42.698;23.148;2022-07-24T12:51:46;93578.88;;;43.11;20.22
10606;BME280;5350;42.698;23.148;2022-07-24T12:54:21;93576.09;;;43.11;18.94
10606;BME280;5350;42.698;23.148;2022-07-24T12:56:48;93567.59;;;43.20;19.26
10606;BME280;5350;42.698;23.148;2022-07-24T12:59:22;93562.13;;;43.53;19.80
10606;BME280;5350;42.698;23.148;2022-07-24T13:01:49;93566.97;;;43.80;18.03
10606;BME280;5350;42.698;23.148;2022-07-24T13:04:16;93560.69;;;44.07;17.35